Time;durP1;ratioP1;P1;durP2;ratioP2;P2;SDS_P1;SDS_P2;PMS_P1;PMS_P2;Temp;Humidity;BMP_temperature;BMP_pressure;BME280_temperature;BME280_humidity;BME280_pressure;Samples;Min_cycle;Max_cycle;Signal;HPM_P1;HPM_P2
2021/04/13 00:00:27;;;;;;;;;;;17.80;58.40;;;;;;4954585;28;19958;-80
2021/04/13 00:02:54;;;;;;;;;;;17.70;58.30;;;;;;4923238;28;19918;-80
2021/04/13 00:05:32;;;;;;;;;;;17.80;58.30;;;;;;4929152;28;20010;-80
2021/04/13 00:08:02;;;;;;;;;;;17.80;58.30;;;;;;4960274;28;19919;-80
2021/04/13 00:10:40;;;;;;;;;;;17.80;58.20;;;;;;4944048;28;19927;-80
2021/04/13 00:13:06;;;;;;;;;;;17.70;58.10;;;;;;4925230;28;20376;-80
2021/04/13 00:15:42;;;;;;;;;;;17.70;58.00;;;;;;4933987;28;19915;-80
2021/04/13 00:18:11;;;;;;;;;;;17.70;58.10;;;;;;4935286;28;20399;-80
2021/04/13 00:20:45;;;;;;;;;;;17.70;57.90;;;;;;4952401;28;20065;-81
2021/04/13 00:23:21;;;;;;;;;;;17.70;58.00;;;;;;4925253;28;19915;-81
2021/04/13 00:26:04;;;;;;;;;;;17.70;58.00;;;;;;4923790;28;19914;-81
2021/04/13 00:28:35;;;;;;;;;;;17.80;58.10;;;;;;4925347;28;20043;-81
2021/04/13 00:31:09;;;;;;;;;;;17.70;57.90;;;;;;4925346;28;20044;-81
2021/04/13 00:33:36;;;;;;;;;;;17.80;57.90;;;;;;4939869;28;19915;-81
2021/04/13 00:36:15;;;;;;;;;;;17.80;57.90;;;;;;4924242;28;19923;-82
2021/04/13 00:38:52;;;;;;;;;;;17.70;57.80;;;;;;4930742;29;19922;-81
2021/04/13 00:41:26;;;;;;;;;;;17.70;57.80;;;;;;4926319;28;20288;-82
2021/04/13 00:43:55;;;;;;;;;;;17.70;57.70;;;;;;4957429;28;19915;-81
2021/04/13 00:46:33;;;;;;;;;;;17.70;57.70;;;;;;4917662;29;19934;-81
2021/04/13 00:49:00;;;;;;;;;;;17.70;57.70;;;;;;4928936;28;19919;-81
2021/04/13 00:51:28;;;;;;;;;;;17.70;57.60;;;;;;4925402;28;19984;-81
2021/04/13 00:53:57;;;;;;;;;;;17.70;57.60;;;;;;4938838;28;20010;-81
2021/04/13 00:56:23;;;;;;;;;;;17.70;57.60;;;;;;4926848;28;19919;-81
2021/04/13 00:59:06;;;;;;;;;;;17.70;57.60;;;;;;4938250;28;19925;-81
2021/04/13 01:01:40;;;;;;;;;;;17.70;57.50;;;;;;4924532;28;19914;-81
2021/04/13 01:04:45;;;;;;;;;;;;;;;;;;;;;
2021/04/13 01:07:03;;;;;;;;;;;17.70;57.40;;;;;;4925175;28;19957;-81
2021/04/13 01:09:33;;;;;;;;;;;17.70;57.30;;;;;;4959992;28;20019;-81
2021/04/13 01:12:16;;;;;;;;;;;17.70;57.30;;;;;;4956996;28;19925;-81
2021/04/13 01:14:43;;;;;;;;;;;17.70;57.30;;;;;;4928102;28;20006;-82
2021/04/13 01:17:13;;;;;;;;;;;17.70;57.30;;;;;;4933261;28;20437;-81
2021/04/13 01:19:48;;;;;;;;;;;17.70;57.30;;;;;;4952872;28;19993;-81
2021/04/13 01:22:23;;;;;;;;;;;17.70;57.20;;;;;;4927355;28;19927;-81
2021/04/13 01:24:58;;;;;;;;;;;17.70;57.20;;;;;;4926973;28;19926;-81
2021/04/13 01:27:23;;;;;;;;;;;17.70;57.10;;;;;;4928788;28;19915;-81
2021/04/13 01:29:54;;;;;;;;;;;17.70;57.20;;;;;;4930227;28;19933;-81
2021/04/13 01:32:22;;;;;;;;;;;17.70;57.10;;;;;;4926092;28;19919;-81
2021/04/13 01:35:01;;;;;;;;;;;17.70;57.00;;;;;;4941041;28;19955;-81
2021/04/13 01:38:14;;;;;;;;;;;17.70;57.10;;;;;;4932228;28;21076;-81
2021/04/13 01:40:50;;;;;;;;;;;17.70;57.00;;;;;;4959359;28;19951;-81
2021/04/13 01:43:21;;;;;;;;;;;17.70;57.00;;;;;;4957777;28;19925;-81
2021/04/13 01:45:48;;;;;;;;;;;17.70;56.90;;;;;;4929651;28;19930;-81
2021/04/13 01:48:14;;;;;;;;;;;17.60;57.00;;;;;;4928768;28;20372;-81
2021/04/13 01:50:41;;;;;;;;;;;17.60;57.00;;;;;;4958782;28;19952;-81
2021/04/13 01:53:06;;;;;;;;;;;17.60;56.90;;;;;;4943686;28;19918;-81
2021/04/13 01:55:36;;;;;;;;;;;17.70;56.90;;;;;;4955359;28;20054;-81
2021/04/13 01:58:20;;;;;;;;;;;17.70;56.90;;;;;;4929645;28;19960;-81
2021/04/13 02:01:07;;;;;;;;;;;17.70;56.80;;;;;;4953872;28;20025;-80
2021/04/13 02:03:42;;;;;;;;;;;17.60;56.80;;;;;;4930626;28;19937;-81
2021/04/13 02:06:19;;;;;;;;;;;17.60;56.80;;;;;;4942611;28;19915;-81
2021/04/13 02:08:47;;;;;;;;;;;17.60;56.80;;;;;;4931453;28;19914;-81
2021/04/13 02:11:19;;;;;;;;;;;17.60;56.70;;;;;;4926982;28;19923;-81
2021/04/13 02:13:47;;;;;;;;;;;17.60;56.70;;;;;;4928422;28;20660;-81
2021/04/13 02:16:19;;;;;;;;;;;17.60;56.70;;;;;;4929533;28;19915;-81
2021/04/13 02:18:49;;;;;;;;;;;17.60;56.60;;;;;;4923545;28;20207;-81
2021/04/13 02:21:29;;;;;;;;;;;17.70;56.60;;;;;;4956529;28;20006;-81
2021/04/13 02:24:09;;;;;;;;;;;17.60;56.70;;;;;;4930281;28;20009;-80
2021/04/13 02:26:42;;;;;;;;;;;17.60;56.60;;;;;;4927176;28;20009;-81
2021/04/13 02:29:08;;;;;;;;;;;17.60;56.60;;;;;;4926134;28;19978;-81
2021/04/13 02:31:37;;;;;;;;;;;17.60;56.60;;;;;;4926883;28;19926;-81
2021/04/13 02:34:14;;;;;;;;;;;17.60;56.50;;;;;;4924498;28;20272;-82
2021/04/13 02:36:41;;;;;;;;;;;17.50;56.60;;;;;;4940314;28;20331;-81
2021/04/13 02:39:11;;;;;;;;;;;17.60;56.50;;;;;;4926774;28;19923;-81
2021/04/13 02:41:44;;;;;;;;;;;17.60;56.40;;;;;;4925797;28;20242;-81
2021/04/13 02:44:18;;;;;;;;;;;17.60;56.50;;;;;;4929429;28;20065;-81
2021/04/13 02:46:57;;;;;;;;;;;17.60;56.50;;;;;;4921373;28;19923;-81
2021/04/13 02:49:23;;;;;;;;;;;17.60;56.40;;;;;;4952537;28;20379;-81
2021/04/13 02:51:54;;;;;;;;;;;17.60;56.40;;;;;;4935943;28;20336;-82
2021/04/13 02:54:33;;;;;;;;;;;17.60;56.40;;;;;;4927567;28;19941;-81
2021/04/13 02:57:03;;;;;;;;;;;17.60;56.40;;;;;;4927785;28;20357;-81
2021/04/13 02:59:31;;;;;;;;;;;17.50;56.40;;;;;;4929577;28;20364;-81
2021/04/13 03:02:00;;;;;;;;;;;17.60;56.40;;;;;;4925437;28;19923;-81
2021/04/13 03:04:26;;;;;;;;;;;17.60;56.30;;;;;;4923223;28;19918;-81
2021/04/13 03:06:53;;;;;;;;;;;17.50;56.30;;;;;;4926038;28;19923;-81
2021/04/13 03:09:19;;;;;;;;;;;17.50;56.30;;;;;;4927785;28;19923;-81
2021/04/13 03:11:47;;;;;;;;;;;17.60;56.30;;;;;;4952293;28;19969;-81
2021/04/13 03:14:14;;;;;;;;;;;17.50;56.30;;;;;;4924389;28;20005;-82
2021/04/13 03:16:41;;;;;;;;;;;17.60;56.20;;;;;;4928446;28;20371;-80
2021/04/13 03:19:12;;;;;;;;;;;17.60;56.30;;;;;;4931047;28;19915;-80
2021/04/13 03:21:46;;;;;;;;;;;17.50;56.20;;;;;;4941613;28;20033;-81
2021/04/13 03:24:15;;;;;;;;;;;17.50;56.20;;;;;;4929520;28;19915;-81
2021/04/13 03:26:48;;;;;;;;;;;17.50;56.20;;;;;;4938431;28;19929;-81
2021/04/13 03:29:20;;;;;;;;;;;17.50;56.20;;;;;;4955170;28;19915;-81
2021/04/13 03:31:48;;;;;;;;;;;17.50;56.10;;;;;;4923020;28;19922;-81
2021/04/13 03:34:16;;;;;;;;;;;17.50;56.10;;;;;;4941712;28;20395;-81
2021/04/13 03:36:41;;;;;;;;;;;17.50;56.10;;;;;;4924922;28;19923;-81
2021/04/13 03:39:08;;;;;;;;;;;17.50;56.10;;;;;;4925618;28;20285;-81
2021/04/13 03:41:41;;;;;;;;;;;17.50;56.10;;;;;;4924306;28;19921;-81
2021/04/13 03:44:11;;;;;;;;;;;17.50;56.10;;;;;;4928467;28;20272;-80
2021/04/13 03:46:38;;;;;;;;;;;17.50;56.00;;;;;;4920985;28;19945;-82
2021/04/13 03:49:10;;;;;;;;;;;17.50;56.10;;;;;;4940648;28;20395;-81
2021/04/13 03:51:49;;;;;;;;;;;17.50;56.00;;;;;;4925528;28;19923;-81
2021/04/13 03:54:24;;;;;;;;;;;17.50;56.00;;;;;;4929741;28;19958;-81
2021/04/13 03:56:53;;;;;;;;;;;17.50;56.00;;;;;;4950386;28;20291;-81
2021/04/13 03:59:23;;;;;;;;;;;17.50;56.00;;;;;;4927204;28;19938;-81
2021/04/13 04:01:50;;;;;;;;;;;17.50;56.00;;;;;;4930164;28;19923;-82
2021/04/13 04:04:33;;;;;;;;;;;17.50;55.90;;;;;;4927638;28;19972;-82
2021/04/13 04:07:25;;;;;;;;;;;17.50;55.90;;;;;;4927458;28;20009;-82
2021/04/13 04:09:54;;;;;;;;;;;17.50;55.90;;;;;;4930287;28;19923;-82
2021/04/13 04:12:30;;;;;;;;;;;17.50;55.90;;;;;;4926171;28;19926;-82
2021/04/13 04:15:10;;;;;;;;;;;17.50;55.90;;;;;;4930639;28;20055;-82
2021/04/13 04:17:37;;;;;;;;;;;17.50;55.80;;;;;;4922283;28;19923;-83
2021/04/13 04:20:08;;;;;;;;;;;17.50;55.80;;;;;;4937779;28;19919;-80
2021/04/13 04:22:35;;;;;;;;;;;17.50;55.80;;;;;;4952411;28;20042;-80
2021/04/13 04:25:18;;;;;;;;;;;17.50;56.00;;;;;;4922022;28;19915;-81
2021/04/13 04:27:52;;;;;;;;;;;17.50;56.10;;;;;;4958272;28;20303;-82
2021/04/13 04:30:24;;;;;;;;;;;17.50;56.20;;;;;;4925537;28;20377;-83
2021/04/13 04:32:50;;;;;;;;;;;17.50;56.50;;;;;;4920852;28;19922;-82
2021/04/13 04:35:34;;;;;;;;;;;17.50;56.50;;;;;;4920540;28;19915;-82
2021/04/13 04:38:02;;;;;;;;;;;17.50;56.60;;;;;;4954217;28;20041;-81
2021/04/13 04:40:28;;;;;;;;;;;17.50;56.60;;;;;;4926946;28;19923;-83
2021/04/13 04:43:05;;;;;;;;;;;17.50;56.80;;;;;;4957136;28;19996;-83
2021/04/13 04:45:38;;;;;;;;;;;17.50;56.70;;;;;;4939151;28;19989;-83
2021/04/13 04:48:34;;;;;;;;;;;17.50;56.70;;;;;;4962252;28;19915;-84
2021/04/13 04:51:02;;;;;;;;;;;17.50;56.80;;;;;;4938389;28;19979;-83
2021/04/13 04:53:33;;;;;;;;;;;17.50;56.80;;;;;;4926456;28;19930;-89
2021/04/13 04:56:00;;;;;;;;;;;17.50;56.50;;;;;;4932535;28;19946;-89
2021/04/13 04:58:26;;;;;;;;;;;17.50;56.60;;;;;;4933779;28;19929;-90
2021/04/13 05:00:53;;;;;;;;;;;17.50;56.60;;;;;;4931227;28;20000;-91
2021/04/13 05:03:20;;;;;;;;;;;17.50;56.70;;;;;;4932103;28;19930;-89
2021/04/13 05:05:46;;;;;;;;;;;17.50;56.70;;;;;;4925860;28;19919;-89
2021/04/13 05:08:12;;;;;;;;;;;17.50;56.70;;;;;;4962524;28;19958;-91
2021/04/13 05:10:43;;;;;;;;;;;17.50;56.70;;;;;;4932349;28;19938;-88
2021/04/13 05:13:13;;;;;;;;;;;17.50;56.70;;;;;;4925854;28;19922;-89
2021/04/13 05:15:39;;;;;;;;;;;17.50;56.80;;;;;;4928360;28;20299;-92
2021/04/13 05:18:10;;;;;;;;;;;17.50;56.80;;;;;;4941682;28;19930;-85
2021/04/13 05:20:36;;;;;;;;;;;17.50;56.80;;;;;;4926646;28;19923;-86
2021/04/13 05:23:06;;;;;;;;;;;17.50;56.80;;;;;;4928429;28;19922;-91
2021/04/13 05:25:32;;;;;;;;;;;17.50;56.80;;;;;;4932103;28;20002;-92
2021/04/13 05:27:58;;;;;;;;;;;17.50;56.90;;;;;;4931292;28;19966;-90
2021/04/13 05:30:24;;;;;;;;;;;17.60;56.80;;;;;;4925242;28;19933;-90
2021/04/13 05:32:50;;;;;;;;;;;17.50;56.90;;;;;;4930533;28;19990;-84
2021/04/13 05:35:16;;;;;;;;;;;17.50;56.90;;;;;;4928647;28;19953;-89
2021/04/13 05:37:45;;;;;;;;;;;17.50;56.90;;;;;;4931410;28;19915;-88
2021/04/13 05:40:16;;;;;;;;;;;17.50;56.90;;;;;;4923224;28;20005;-85
2021/04/13 05:42:45;;;;;;;;;;;17.50;56.90;;;;;;4928389;28;20050;-92
2021/04/13 05:45:12;;;;;;;;;;;17.50;56.90;;;;;;4958480;28;19923;-90
2021/04/13 05:47:52;;;;;;;;;;;17.50;56.90;;;;;;4923604;28;20430;-90
2021/04/13 05:50:25;;;;;;;;;;;17.50;56.90;;;;;;4921031;28;19923;-92
2021/04/13 05:52:51;;;;;;;;;;;17.50;56.90;;;;;;4942697;28;19929;-91
2021/04/13 05:55:17;;;;;;;;;;;17.60;56.90;;;;;;4924967;28;19915;-92
2021/04/13 05:57:43;;;;;;;;;;;17.60;56.90;;;;;;4936758;28;19958;-88
2021/04/13 06:00:09;;;;;;;;;;;17.60;56.90;;;;;;4931797;29;20001;-87
2021/04/13 06:02:35;;;;;;;;;;;17.60;56.90;;;;;;4930514;28;19930;-87
2021/04/13 06:05:02;;;;;;;;;;;17.60;56.90;;;;;;4924316;28;19926;-89
2021/04/13 06:07:27;;;;;;;;;;;17.60;57.00;;;;;;4928681;28;19922;-89
2021/04/13 06:09:53;;;;;;;;;;;17.60;57.00;;;;;;4962388;28;19923;-85
2021/04/13 06:12:20;;;;;;;;;;;17.50;57.00;;;;;;4929796;28;19918;-89
2021/04/13 06:14:45;;;;;;;;;;;17.50;57.00;;;;;;4925149;28;19922;-91
2021/04/13 06:17:11;;;;;;;;;;;17.50;57.00;;;;;;4932256;28;19926;-91
2021/04/13 06:19:36;;;;;;;;;;;17.50;57.00;;;;;;4940257;28;19915;-92
2021/04/13 06:22:03;;;;;;;;;;;17.50;57.00;;;;;;4934575;28;19919;-90
2021/04/13 06:24:28;;;;;;;;;;;17.60;57.00;;;;;;4932859;28;19957;-91
2021/04/13 06:26:54;;;;;;;;;;;17.60;57.00;;;;;;4932774;28;20287;-92
2021/04/13 06:29:19;;;;;;;;;;;17.60;57.10;;;;;;4930457;28;19919;-91
2021/04/13 06:31:45;;;;;;;;;;;17.60;57.00;;;;;;4929626;28;20379;-89
2021/04/13 06:34:11;;;;;;;;;;;17.60;57.00;;;;;;4960566;28;19913;-91
2021/04/13 06:36:37;;;;;;;;;;;17.60;57.10;;;;;;4944392;28;19919;-89
2021/04/13 06:39:04;;;;;;;;;;;17.50;57.10;;;;;;4924166;28;19915;-83
2021/04/13 06:41:50;;;;;;;;;;;17.60;57.10;;;;;;4930838;28;19923;-93
2021/04/13 06:44:31;;;;;;;;;;;17.60;57.10;;;;;;4932791;29;19915;-93
2021/04/13 06:47:21;;;;;;;;;;;17.60;57.10;;;;;;4949360;28;19980;-92
2021/04/13 06:49:47;;;;;;;;;;;17.60;57.10;;;;;;4960103;28;19927;-93
2021/04/13 06:52:35;;;;;;;;;;;17.60;57.10;;;;;;4972733;28;20189;-88
2021/04/13 06:55:25;;;;;;;;;;;17.60;57.00;;;;;;4974091;28;20352;-94
2021/04/13 06:57:56;;;;;;;;;;;17.60;57.00;;;;;;4939413;28;19923;-95
2021/04/13 07:00:42;;;;;;;;;;;17.60;57.00;;;;;;4937373;28;20004;-95
2021/04/13 07:03:08;;;;;;;;;;;17.60;56.90;;;;;;4950657;28;19986;-95
2021/04/13 07:05:40;;;;;;;;;;;17.70;56.90;;;;;;4974957;28;19915;-95
2021/04/13 07:08:11;;;;;;;;;;;17.70;56.80;;;;;;4938257;28;20021;-93
2021/04/13 07:10:44;;;;;;;;;;;17.70;56.90;;;;;;4938192;28;19919;-96
2021/04/13 07:13:13;;;;;;;;;;;17.70;56.90;;;;;;4946026;28;20037;-96
2021/04/13 07:15:38;;;;;;;;;;;17.70;56.90;;;;;;4945321;28;19998;-96
2021/04/13 07:18:11;;;;;;;;;;;17.70;56.80;;;;;;4942309;28;19914;-92
2021/04/13 07:20:40;;;;;;;;;;;17.70;56.90;;;;;;4939887;29;19915;-94
2021/04/13 07:23:10;;;;;;;;;;;17.70;56.90;;;;;;4962850;28;20365;-94
2021/04/13 07:25:48;;;;;;;;;;;17.60;56.90;;;;;;4939897;28;19915;-93
2021/04/13 07:28:17;;;;;;;;;;;17.70;56.90;;;;;;4934900;29;19942;-96
2021/04/13 07:30:48;;;;;;;;;;;17.70;56.80;;;;;;4941804;28;19919;-96
2021/04/13 07:33:18;;;;;;;;;;;17.70;56.80;;;;;;4938681;28;19926;-96
2021/04/13 07:35:43;;;;;;;;;;;17.70;56.70;;;;;;4926717;28;19946;-94
2021/04/13 07:38:12;;;;;;;;;;;17.70;56.80;;;;;;4938130;28;19919;-96
2021/04/13 07:40:39;;;;;;;;;;;17.70;56.80;;;;;;4930319;28;19915;-96
2021/04/13 07:43:20;;;;;;;;;;;17.70;56.80;;;;;;4930208;28;20233;-96
2021/04/13 07:46:04;;;;;;;;;;;17.70;56.80;;;;;;4951785;28;19945;-94
2021/04/13 07:48:36;;;;;;;;;;;17.70;56.80;;;;;;4940362;28;20371;-96
2021/04/13 07:51:07;;;;;;;;;;;17.70;56.80;;;;;;4936963;28;19927;-93
2021/04/13 07:53:36;;;;;;;;;;;17.70;56.90;;;;;;4964495;28;19923;-94
2021/04/13 07:56:18;;;;;;;;;;;17.70;56.90;;;;;;4928382;28;19915;-94
2021/04/13 07:58:43;;;;;;;;;;;17.70;56.90;;;;;;4924742;28;19938;-96
2021/04/13 08:01:09;;;;;;;;;;;17.70;56.80;;;;;;4967198;28;20364;-95
2021/04/13 08:03:35;;;;;;;;;;;17.70;56.80;;;;;;4936846;28;19915;-95
2021/04/13 08:06:02;;;;;;;;;;;17.70;56.80;;;;;;4934124;28;20390;-96
2021/04/13 08:08:39;;;;;;;;;;;17.70;56.80;;;;;;4935809;28;19915;-96
2021/04/13 08:11:10;;;;;;;;;;;17.70;56.80;;;;;;4962254;28;19919;-96
2021/04/13 08:13:36;;;;;;;;;;;17.70;56.80;;;;;;4970970;28;19994;-96
2021/04/13 08:16:02;;;;;;;;;;;17.70;56.80;;;;;;4940900;28;19927;-93
2021/04/13 08:18:33;;;;;;;;;;;17.70;56.70;;;;;;4944077;28;19916;-94
2021/04/13 08:21:17;;;;;;;;;;;17.80;56.70;;;;;;4975063;28;19961;-95
2021/04/13 08:23:43;;;;;;;;;;;17.70;56.70;;;;;;4971035;28;19946;-92
2021/04/13 08:26:16;;;;;;;;;;;17.80;56.70;;;;;;4935540;28;19915;-87
2021/04/13 08:28:55;;;;;;;;;;;17.70;56.70;;;;;;4923849;28;19915;-90
2021/04/13 08:34:22;;;;;;;;;;;17.70;56.70;;;;;;4931375;28;19930;-89
2021/04/13 08:37:06;;;;;;;;;;;17.70;56.80;;;;;;4958379;28;19917;-91
2021/04/13 08:40:07;;;;;;;;;;;17.70;56.80;;;;;;4961779;28;19919;-91
2021/04/13 08:42:51;;;;;;;;;;;17.70;56.80;;;;;;4927484;28;19964;-90
2021/04/13 08:45:20;;;;;;;;;;;17.70;56.80;;;;;;4962466;28;20311;-91
2021/04/13 08:47:52;;;;;;;;;;;17.80;56.60;;;;;;4930532;28;19923;-88
2021/04/13 08:50:38;;;;;;;;;;;17.80;56.60;;;;;;4948204;28;19926;-90
2021/04/13 08:53:25;;;;;;;;;;;17.80;56.50;;;;;;4932828;28;19920;-89
2021/04/13 08:56:02;;;;;;;;;;;17.80;56.50;;;;;;4931653;28;19921;-86
2021/04/13 08:58:36;;;;;;;;;;;17.80;56.50;;;;;;4934709;28;19918;-87
2021/04/13 09:01:19;;;;;;;;;;;17.80;56.50;;;;;;4925390;28;19915;-88
2021/04/13 09:03:45;;;;;;;;;;;17.80;56.60;;;;;;4960385;28;19922;-87
2021/04/13 09:06:12;;;;;;;;;;;17.80;56.60;;;;;;4935874;28;19922;-89
2021/04/13 09:08:51;;;;;;;;;;;17.80;56.50;;;;;;4933036;28;19921;-88
2021/04/13 09:11:34;;;;;;;;;;;17.80;56.30;;;;;;4934746;28;20280;-91
2021/04/13 09:14:02;;;;;;;;;;;17.90;56.20;;;;;;4949957;28;19974;-89
2021/04/13 09:16:28;;;;;;;;;;;17.90;56.20;;;;;;4928126;28;19919;-90
2021/04/13 09:18:59;;;;;;;;;;;18.00;56.00;;;;;;4929253;28;19919;-89
2021/04/13 09:21:30;;;;;;;;;;;18.00;55.90;;;;;;4923441;29;19915;-89
2021/04/13 09:23:59;;;;;;;;;;;17.90;56.00;;;;;;4932128;28;20001;-87
2021/04/13 09:26:24;;;;;;;;;;;17.90;56.10;;;;;;4963470;28;20364;-89
2021/04/13 09:28:58;;;;;;;;;;;17.90;56.20;;;;;;4950647;28;20006;-89
2021/04/13 09:31:28;;;;;;;;;;;17.90;56.30;;;;;;4930061;28;19964;-87
2021/04/13 09:34:20;;;;;;;;;;;17.80;56.30;;;;;;4929802;28;19922;-89
2021/04/13 09:36:49;;;;;;;;;;;17.90;56.30;;;;;;4934018;28;19919;-89
2021/04/13 09:39:34;;;;;;;;;;;17.90;56.20;;;;;;4963403;28;19915;-89
2021/04/13 09:42:00;;;;;;;;;;;17.90;56.20;;;;;;4930164;28;19930;-89
2021/04/13 09:44:44;;;;;;;;;;;17.90;56.10;;;;;;4953257;28;19919;-88
2021/04/13 09:47:14;;;;;;;;;;;17.90;56.00;;;;;;4954635;28;19927;-87
2021/04/13 09:50:07;;;;;;;;;;;18.00;56.00;;;;;;4922039;28;19970;-91
2021/04/13 09:52:51;;;;;;;;;;;18.00;55.90;;;;;;4962749;28;19933;-91
2021/04/13 09:55:26;;;;;;;;;;;18.10;55.80;;;;;;4959100;28;19916;-91
2021/04/13 09:57:56;;;;;;;;;;;18.10;55.80;;;;;;4960928;28;19919;-91
2021/04/13 10:00:25;;;;;;;;;;;18.00;55.80;;;;;;4959766;28;19921;-91
2021/04/13 10:03:09;;;;;;;;;;;18.00;55.80;;;;;;4961755;28;19964;-88
2021/04/13 10:05:39;;;;;;;;;;;18.00;55.70;;;;;;4933762;28;19922;-88
2021/04/13 10:08:08;;;;;;;;;;;18.10;55.70;;;;;;4932553;28;19915;-88
2021/04/13 10:10:43;;;;;;;;;;;18.10;55.60;;;;;;4924258;28;20426;-90
2021/04/13 10:13:24;;;;;;;;;;;18.10;55.70;;;;;;4936341;28;19997;-90
2021/04/13 10:16:08;;;;;;;;;;;18.10;55.70;;;;;;4955225;28;19946;-86
2021/04/13 10:18:49;;;;;;;;;;;18.10;55.70;;;;;;4957776;28;19915;-89
2021/04/13 10:21:38;;;;;;;;;;;18.10;55.70;;;;;;4958971;28;19953;-89
2021/04/13 10:24:23;;;;;;;;;;;18.10;55.70;;;;;;4957721;28;20426;-88
2021/04/13 10:27:07;;;;;;;;;;;18.10;55.70;;;;;;4928443;28;19922;-93
2021/04/13 10:29:51;;;;;;;;;;;18.10;55.70;;;;;;4967325;28;20293;-94
2021/04/13 10:32:28;;;;;;;;;;;18.10;55.60;;;;;;4933250;28;19919;-93
2021/04/13 10:35:08;;;;;;;;;;;18.10;55.60;;;;;;4960375;28;20006;-87
2021/04/13 10:37:36;;;;;;;;;;;18.10;55.60;;;;;;4938193;28;19999;-94
2021/04/13 10:40:20;;;;;;;;;;;18.10;55.50;;;;;;4925611;28;20390;-94
2021/04/13 10:42:45;;;;;;;;;;;18.10;55.60;;;;;;4924732;28;20288;-92
2021/04/13 10:45:11;;;;;;;;;;;18.10;55.60;;;;;;4930926;29;19915;-93
2021/04/13 10:47:57;;;;;;;;;;;18.10;55.60;;;;;;4929497;28;19923;-92
2021/04/13 10:50:46;;;;;;;;;;;18.10;55.60;;;;;;4956939;28;19926;-94
2021/04/13 10:53:16;;;;;;;;;;;18.10;55.50;;;;;;4931744;28;20677;-94
2021/04/13 10:56:00;;;;;;;;;;;18.20;55.40;;;;;;4929205;28;19915;-93
2021/04/13 10:58:49;;;;;;;;;;;18.20;55.40;;;;;;4959255;28;19926;-89
2021/04/13 11:01:21;;;;;;;;;;;18.20;55.50;;;;;;4924983;28;19923;-90
2021/04/13 11:03:55;;;;;;;;;;;18.20;55.50;;;;;;4934997;28;19925;-92
2021/04/13 11:06:32;;;;;;;;;;;18.20;55.50;;;;;;4923543;28;19915;-93
2021/04/13 11:09:16;;;;;;;;;;;18.10;55.60;;;;;;4927016;28;19915;-94
2021/04/13 11:11:54;;;;;;;;;;;18.20;55.50;;;;;;4916868;29;19926;-91
2021/04/13 11:14:22;;;;;;;;;;;18.10;55.50;;;;;;4955048;28;19934;-93
2021/04/13 11:16:54;;;;;;;;;;;18.20;55.40;;;;;;4932786;28;20483;-92
2021/04/13 11:19:25;;;;;;;;;;;18.20;55.40;;;;;;4926515;28;19933;-93
2021/04/13 11:22:09;;;;;;;;;;;18.20;55.30;;;;;;4924183;29;19927;-92
2021/04/13 11:24:34;;;;;;;;;;;18.20;55.30;;;;;;4921867;28;20234;-91
2021/04/13 11:27:18;;;;;;;;;;;18.20;55.30;;;;;;4928112;28;20021;-92
2021/04/13 11:30:08;;;;;;;;;;;18.20;55.40;;;;;;4959892;28;19915;-90
2021/04/13 11:32:52;;;;;;;;;;;18.20;55.30;;;;;;4921237;28;19962;-93
2021/04/13 11:35:20;;;;;;;;;;;18.20;55.40;;;;;;4952104;28;19978;-90
2021/04/13 11:38:01;;;;;;;;;;;18.20;55.40;;;;;;4932317;28;19915;-93
2021/04/13 11:40:30;;;;;;;;;;;18.20;55.20;;;;;;4958074;28;19924;-92
2021/04/13 11:42:56;;;;;;;;;;;18.20;55.20;;;;;;4962439;28;19919;-92
2021/04/13 11:45:22;;;;;;;;;;;18.30;55.10;;;;;;4933589;28;19993;-92
2021/04/13 11:47:59;;;;;;;;;;;18.30;55.10;;;;;;4932182;28;20470;-95
2021/04/13 11:50:32;;;;;;;;;;;18.30;55.00;;;;;;4959373;28;20239;-94
2021/04/13 11:53:14;;;;;;;;;;;18.30;55.00;;;;;;4933076;28;19919;-95
2021/04/13 11:55:41;;;;;;;;;;;18.30;55.00;;;;;;4923861;28;19923;-92
2021/04/13 11:58:24;;;;;;;;;;;18.30;54.90;;;;;;4926239;28;20005;-91
2021/04/13 12:00:50;;;;;;;;;;;18.30;54.90;;;;;;4961380;28;19945;-89
2021/04/13 12:03:19;;;;;;;;;;;18.30;55.00;;;;;;4929533;28;19919;-91
2021/04/13 12:05:48;;;;;;;;;;;18.30;55.00;;;;;;4958325;28;19915;-90
2021/04/13 12:08:32;;;;;;;;;;;18.30;55.00;;;;;;4933455;28;19925;-94
2021/04/13 12:11:01;;;;;;;;;;;18.30;55.00;;;;;;4964918;28;19926;-90
2021/04/13 12:13:38;;;;;;;;;;;18.30;55.00;;;;;;4963882;28;20348;-93
2021/04/13 12:16:04;;;;;;;;;;;18.30;55.00;;;;;;4936177;28;19915;-90
2021/04/13 12:18:35;;;;;;;;;;;18.30;55.00;;;;;;4936916;28;19985;-89
2021/04/13 12:21:20;;;;;;;;;;;18.40;54.90;;;;;;4960291;28;19918;-92
2021/04/13 12:23:49;;;;;;;;;;;18.30;54.90;;;;;;4969008;28;19915;-87
2021/04/13 12:26:27;;;;;;;;;;;18.40;54.80;;;;;;4934684;28;19934;-93
2021/04/13 12:28:53;;;;;;;;;;;18.30;54.80;;;;;;4939295;28;19942;-94
2021/04/13 12:31:26;;;;;;;;;;;18.30;54.90;;;;;;4937431;28;20373;-94
2021/04/13 12:33:54;;;;;;;;;;;18.30;55.00;;;;;;4966330;28;20005;-88
2021/04/13 12:36:39;;;;;;;;;;;18.30;55.10;;;;;;4968998;28;19957;-95
2021/04/13 12:39:04;;;;;;;;;;;18.20;55.30;;;;;;4937456;28;19946;-86
2021/04/13 12:41:34;;;;;;;;;;;18.20;55.40;;;;;;4967024;28;19918;-94
2021/04/13 12:44:26;;;;;;;;;;;18.10;55.50;;;;;;4940435;28;19923;-93
2021/04/13 12:46:56;;;;;;;;;;;18.10;55.60;;;;;;4969334;28;20372;-88
2021/04/13 12:49:25;;;;;;;;;;;18.10;55.60;;;;;;4952811;28;19919;-91
2021/04/13 12:51:55;;;;;;;;;;;18.10;55.60;;;;;;4935032;28;19993;-91
2021/04/13 12:54:26;;;;;;;;;;;18.10;55.60;;;;;;4942353;28;20432;-94
2021/04/13 12:57:11;;;;;;;;;;;18.20;55.50;;;;;;4952170;28;19919;-86
2021/04/13 12:59:37;;;;;;;;;;;18.20;55.40;;;;;;4968882;28;19945;-93
2021/04/13 13:02:05;;;;;;;;;;;18.20;55.40;;;;;;4939233;28;19915;-93
2021/04/13 13:04:35;;;;;;;;;;;18.30;55.30;;;;;;4962130;28;20411;-92
2021/04/13 13:07:01;;;;;;;;;;;18.20;55.30;;;;;;4944808;28;19919;-89
2021/04/13 13:09:29;;;;;;;;;;;18.30;55.20;;;;;;4930942;28;19969;-87
2021/04/13 13:11:56;;;;;;;;;;;18.30;55.20;;;;;;4934826;28;19927;-88
2021/04/13 13:14:22;;;;;;;;;;;18.30;55.10;;;;;;4928772;28;22027;-88
2021/04/13 13:16:53;;;;;;;;;;;18.30;55.10;;;;;;4938600;28;19954;-87
2021/04/13 13:19:45;;;;;;;;;;;18.30;55.20;;;;;;4938467;28;19915;-88
2021/04/13 13:22:13;;;;;;;;;;;18.30;55.20;;;;;;4929761;28;19938;-87
2021/04/13 13:24:38;;;;;;;;;;;18.30;55.30;;;;;;4955651;28;19951;-88
2021/04/13 13:27:11;;;;;;;;;;;18.30;55.30;;;;;;4944202;28;19962;-88
2021/04/13 13:29:37;;;;;;;;;;;18.20;55.40;;;;;;4926861;28;19922;-88
2021/04/13 13:32:03;;;;;;;;;;;18.30;55.40;;;;;;4933142;28;19919;-88
2021/04/13 13:34:28;;;;;;;;;;;18.30;55.50;;;;;;4926313;28;19981;-87
2021/04/13 13:36:55;;;;;;;;;;;18.30;55.40;;;;;;4929949;28;19915;-88
2021/04/13 13:39:26;;;;;;;;;;;18.20;55.50;;;;;;4927984;28;20056;-88
2021/04/13 13:41:53;;;;;;;;;;;18.20;55.60;;;;;;4916956;29;19919;-87
2021/04/13 13:44:30;;;;;;;;;;;18.20;55.60;;;;;;4924454;28;20273;-87
2021/04/13 13:47:14;;;;;;;;;;;18.20;55.50;;;;;;4966137;28;20292;-88
2021/04/13 13:49:41;;;;;;;;;;;18.20;55.50;;;;;;4921267;28;20423;-87
2021/04/13 13:52:26;;;;;;;;;;;18.20;55.40;;;;;;4955867;28;20277;-87
2021/04/13 13:55:03;;;;;;;;;;;18.20;55.50;;;;;;4952578;28;19968;-88
2021/04/13 13:57:36;;;;;;;;;;;18.20;55.70;;;;;;4932268;28;19923;-88
2021/04/13 14:00:03;;;;;;;;;;;18.20;55.70;;;;;;4954500;28;19926;-87
2021/04/13 14:02:30;;;;;;;;;;;18.20;55.70;;;;;;4932416;28;19941;-88
2021/04/13 14:05:12;;;;;;;;;;;18.20;55.60;;;;;;4935081;28;20360;-87
2021/04/13 14:07:38;;;;;;;;;;;18.20;55.50;;;;;;4959752;28;19958;-88
2021/04/13 14:10:30;;;;;;;;;;;18.30;55.40;;;;;;4932127;28;19969;-88
2021/04/13 14:13:11;;;;;;;;;;;18.30;55.40;;;;;;4943246;28;19922;-88
2021/04/13 14:15:40;;;;;;;;;;;18.30;55.40;;;;;;4934537;28;19922;-87
2021/04/13 14:18:20;;;;;;;;;;;18.30;55.40;;;;;;4934409;28;19911;-87
2021/04/13 14:21:11;;;;;;;;;;;18.30;55.40;;;;;;4960980;28;19923;-87
2021/04/13 14:23:41;;;;;;;;;;;18.30;55.40;;;;;;4928499;28;19915;-87
2021/04/13 14:26:13;;;;;;;;;;;18.20;55.50;;;;;;4929135;28;19961;-87
2021/04/13 14:28:38;;;;;;;;;;;18.20;55.70;;;;;;4971433;28;19920;-86
2021/04/13 14:31:18;;;;;;;;;;;18.10;55.70;;;;;;4974926;28;20010;-86
2021/04/13 14:33:43;;;;;;;;;;;18.10;55.80;;;;;;4928753;29;19972;-87
2021/04/13 14:36:10;;;;;;;;;;;18.10;55.90;;;;;;4937958;28;19915;-87
2021/04/13 14:38:38;;;;;;;;;;;18.10;55.90;;;;;;4939264;28;19919;-88
2021/04/13 14:41:04;;;;;;;;;;;18.20;55.80;;;;;;4935283;28;20296;-87
2021/04/13 14:43:29;;;;;;;;;;;18.20;55.70;;;;;;4945076;28;19919;-88
2021/04/13 14:45:55;;;;;;;;;;;18.20;55.60;;;;;;4936925;29;19923;-87
2021/04/13 14:48:21;;;;;;;;;;;18.20;55.50;;;;;;4926212;28;20403;-87
2021/04/13 14:50:48;;;;;;;;;;;18.30;55.50;;;;;;4933131;28;19918;-86
2021/04/13 14:53:14;;;;;;;;;;;18.30;55.50;;;;;;4936759;28;19963;-88